createdAt,value
2022-12-04T00:00:00.970Z,98469.22
2022-12-04T00:02:27.501Z,98471.97
2022-12-04T00:04:54.079Z,98467.34
2022-12-04T00:07:20.576Z,98460.25
2022-12-04T00:09:47.037Z,98461.34
2022-12-04T00:12:13.750Z,98461.63
2022-12-04T00:15:16.151Z,98459.44
2022-12-04T00:17:26.957Z,98467.34
2022-12-04T00:19:53.642Z,98470.91
2022-12-04T00:22:21.120Z,98463.53
2022-12-04T00:24:47.573Z,98464.63
2022-12-04T00:27:14.056Z,98468.41
2022-12-04T00:29:40.518Z,98467.84
2022-12-04T00:32:07.061Z,98471.69
2022-12-04T00:34:33.604Z,98473.59
2022-12-04T00:37:00.085Z,98476.59
2022-12-04T00:39:26.577Z,98464.59
2022-12-04T00:41:53.033Z,98469.50
2022-12-04T00:44:19.543Z,98468.97
2022-12-04T00:46:46.188Z,98460.53
2022-12-04T00:49:12.645Z,98460.25
2022-12-04T00:51:39.091Z,98462.44
2022-12-04T00:54:05.838Z,98455.34
2022-12-04T00:56:32.333Z,98454.53
2022-12-04T00:58:59.552Z,98460.00
2022-12-04T01:01:29.709Z,98453.44
2022-12-04T01:03:56.597Z,98454.00
2022-12-04T01:06:24.969Z,98452.66
2022-12-04T01:08:52.051Z,98449.09
2022-12-04T01:11:18.922Z,98455.38
2022-12-04T01:13:45.846Z,98457.81
2022-12-04T01:16:20.441Z,98453.97
2022-12-04T01:18:47.109Z,98442.81
2022-12-04T01:21:13.601Z,98441.75
2022-12-04T01:23:40.161Z,98445.28
2022-12-04T01:26:06.632Z,98440.66
2022-12-04T01:28:33.122Z,98437.91
2022-12-04T01:31:08.237Z,98445.00
2022-12-04T01:33:35.709Z,98437.91
2022-12-04T01:36:02.660Z,98440.38
2022-12-04T01:38:29.237Z,98434.66
2022-12-04T01:40:55.828Z,98432.75
2022-12-04T01:43:22.341Z,98438.22
2022-12-04T01:45:56.409Z,98425.16
2022-12-04T01:48:32.094Z,98421.06
2022-12-04T01:51:18.941Z,98428.41
2022-12-04T01:54:07.921Z,98428.41
2022-12-04T01:56:53.835Z,98423.50
2022-12-04T01:59:23.159Z,98418.88
2022-12-04T02:01:57.389Z,98427.31
2022-12-04T02:04:23.960Z,98426.22
2022-12-04T02:06:50.435Z,98433.84
2022-12-04T02:09:19.368Z,98437.13
2022-12-04T02:11:55.799Z,98438.75
2022-12-04T02:14:36.452Z,98436.59
2022-12-04T02:17:11.746Z,98431.69
2022-12-04T02:19:41.071Z,98435.50
2022-12-04T02:22:14.809Z,98433.84
2022-12-04T02:24:50.124Z,98442.81
2022-12-04T02:27:43.799Z,98443.66
2022-12-04T02:30:12.228Z,98443.66
2022-12-04T02:33:09.585Z,98436.59
2022-12-04T02:35:44.484Z,98435.22
2022-12-04T02:38:18.577Z,98442.84
2022-12-04T02:41:11.347Z,98437.69
2022-12-04T02:43:46.088Z,98442.31
2022-12-04T02:46:26.647Z,98432.50
2022-12-04T02:48:55.177Z,98430.03
2022-12-04T02:51:21.835Z,98430.06
2022-12-04T02:53:51.215Z,98433.59
2022-12-04T02:56:26.678Z,98435.22
2022-12-04T02:58:55.622Z,98431.16
2022-12-04T03:01:25.235Z,98428.69
2022-12-04T03:04:02.759Z,98435.25
2022-12-04T03:06:31.199Z,98426.78
2022-12-04T03:09:01.189Z,98429.53
2022-12-04T03:11:28.754Z,98430.88
2022-12-04T03:13:58.814Z,98423.78
2022-12-04T03:16:26.131Z,98428.16
2022-12-04T03:19:02.524Z,98422.69
2022-12-04T03:21:30.366Z,98426.25
2022-12-04T03:24:01.172Z,98427.88
2022-12-04T03:26:31.472Z,98430.06
2022-12-04T03:29:03.791Z,98422.97
2022-12-04T03:31:42.824Z,98421.88
2022-12-04T03:34:09.306Z,98423.81
2022-12-04T03:36:44.456Z,98434.16
2022-12-04T03:39:26.349Z,98435.75
2022-12-04T03:42:24.291Z,98429.78
2022-12-04T03:45:16.822Z,98427.59
2022-12-04T03:47:48.569Z,98427.59
2022-12-04T03:50:36.982Z,98431.69
2022-12-04T03:53:07.460Z,98433.31
2022-12-04T03:55:53.471Z,98446.41
2022-12-04T03:58:23.169Z,98458.38
2022-12-04T04:00:51.221Z,98449.66
2022-12-04T04:03:30.401Z,98453.75
2022-12-04T04:06:00.561Z,98447.75
2022-12-04T04:08:27.947Z,98453.47
2022-12-04T04:11:05.321Z,98446.13
2022-12-04T04:14:00.259Z,98455.91
2022-12-04T04:16:46.832Z,98451.31
2022-12-04T04:19:33.073Z,98461.38
2022-12-04T04:22:18.525Z,98455.13
2022-12-04T04:24:51.837Z,98444.50
2022-12-04T04:27:18.314Z,98446.94
2022-12-04T04:29:52.351Z,98441.22
2022-12-04T04:32:39.623Z,98447.22
2022-12-04T04:35:18.444Z,98439.88
2022-12-04T04:38:17.092Z,98437.41
2022-12-04T04:40:49.804Z,98437.13
2022-12-04T04:43:29.465Z,98443.41
2022-12-04T04:45:59.165Z,98431.16
2022-12-04T04:48:36.709Z,98430.59
2022-12-04T04:51:03.421Z,98432.78
2022-12-04T04:54:00.259Z,98437.66
2022-12-04T04:56:26.741Z,98434.69
2022-12-04T04:58:53.492Z,98441.78
2022-12-04T05:01:21.404Z,98437.41
2022-12-04T05:03:48.176Z,98437.41
2022-12-04T05:06:14.721Z,98439.31
2022-12-04T05:08:41.353Z,98450.19
2022-12-04T05:11:11.619Z,98446.38
2022-12-04T05:13:38.081Z,98448.03
2022-12-04T05:16:10.077Z,98451.56
2022-12-04T05:18:36.659Z,98448.28
2022-12-04T05:21:07.373Z,98453.47
2022-12-04T05:23:34.288Z,98449.66
2022-12-04T05:26:04.641Z,98442.31
2022-12-04T05:28:31.260Z,98433.31
2022-12-04T05:31:00.312Z,98442.31
2022-12-04T05:33:26.930Z,98440.94
2022-12-04T05:36:00.427Z,98437.41
2022-12-04T05:38:26.966Z,98445.31
2022-12-04T05:40:53.499Z,98440.94
2022-12-04T05:43:19.977Z,98440.13
2022-12-04T05:45:46.464Z,98440.41
2022-12-04T05:48:12.920Z,98434.38
2022-12-04T05:50:39.817Z,98437.97
2022-12-04T05:53:06.377Z,98438.78
2022-12-04T05:55:32.834Z,98436.59
2022-12-04T05:57:59.599Z,98442.31
2022-12-04T06:00:26.272Z,98438.50
2022-12-04T06:02:53.074Z,98441.22
2022-12-04T06:05:19.669Z,98446.94
2022-12-04T06:07:46.223Z,98438.78
2022-12-04T06:10:12.734Z,98446.69
2022-12-04T06:12:39.449Z,98449.13
2022-12-04T06:15:06.124Z,98446.91
2022-12-04T06:17:32.600Z,98451.00
2022-12-04T06:20:00.164Z,98440.13
2022-12-04T06:22:26.901Z,98446.91
2022-12-04T06:24:53.472Z,98440.97
2022-12-04T06:27:28.799Z,98437.41
2022-12-04T06:29:56.176Z,98445.81
2022-12-04T06:32:22.843Z,98449.91
2022-12-04T06:34:53.056Z,98442.28
2022-12-04T06:37:20.389Z,98440.13
2022-12-04T06:39:46.862Z,98435.22
2022-12-04T06:42:13.341Z,98441.47
2022-12-04T06:44:40.150Z,98431.94
2022-12-04T06:47:06.659Z,98445.81
2022-12-04T06:49:33.126Z,98440.94
2022-12-04T06:51:59.622Z,98445.84
2022-12-04T06:54:26.618Z,98440.66
2022-12-04T06:56:53.091Z,98442.84
2022-12-04T06:59:19.808Z,98451.00
2022-12-04T07:01:46.275Z,98460.28
2022-12-04T07:04:12.796Z,98452.09
2022-12-04T07:06:39.298Z,98460.81
2022-12-04T07:09:23.914Z,98459.47
2022-12-04T07:11:50.373Z,98455.91
2022-12-04T07:14:16.944Z,98449.91
2022-12-04T07:16:43.542Z,98460.28
2022-12-04T07:19:10.610Z,98460.81
2022-12-04T07:21:37.358Z,98461.38
2022-12-04T07:24:04.274Z,98466.53
2022-12-04T07:26:31.309Z,98469.00
2022-12-04T07:28:58.164Z,98465.72
2022-12-04T07:31:25.203Z,98466.53
2022-12-04T07:33:53.802Z,98464.59
2022-12-04T07:36:20.456Z,98468.16
2022-12-04T07:38:47.020Z,98472.25
2022-12-04T07:41:13.950Z,98469.50
2022-12-04T07:43:40.679Z,98468.97
2022-12-04T07:46:27.641Z,98470.06
2022-12-04T07:48:58.112Z,98475.22
2022-12-04T07:51:26.564Z,98476.88
2022-12-04T07:54:02.838Z,98477.41
2022-12-04T07:56:30.942Z,98480.13
2022-12-04T07:58:57.408Z,98474.97
2022-12-04T08:01:24.223Z,98477.41
2022-12-04T08:03:52.370Z,98468.69
2022-12-04T08:06:20.454Z,98463.53
2022-12-04T08:08:47.063Z,98465.44
2022-12-04T08:11:15.523Z,98471.41
2022-12-04T08:13:42.058Z,98479.06
2022-12-04T08:16:09.355Z,98471.69
2022-12-04T08:18:36.014Z,98470.59
2022-12-04T08:21:04.484Z,98482.00
2022-12-04T08:23:31.064Z,98475.47
2022-12-04T08:26:00.888Z,98476.28
2022-12-04T08:28:28.206Z,98483.66
2022-12-04T08:30:54.801Z,98481.19
2022-12-04T08:33:21.368Z,98474.66
2022-12-04T08:35:47.827Z,98479.28
2022-12-04T08:38:14.393Z,98474.94
2022-12-04T08:40:40.881Z,98481.19
2022-12-04T08:43:07.357Z,98486.91
2022-12-04T08:45:33.872Z,98471.66
2022-12-04T08:48:00.363Z,98474.09
2022-12-04T08:50:27.228Z,98476.03
2022-12-04T08:52:53.715Z,98476.28
2022-12-04T08:55:20.199Z,98479.28
2022-12-04T08:57:46.782Z,98476.25
2022-12-04T09:00:15.372Z,98476.84
2022-12-04T09:02:41.899Z,98478.19
2022-12-04T09:05:08.497Z,98473.03
2022-12-04T09:07:35.012Z,98475.44
2022-12-04T09:10:01.760Z,98471.88
2022-12-04T09:12:28.478Z,98471.34
2022-12-04T09:14:54.956Z,98471.88
2022-12-04T09:17:21.439Z,98481.44
2022-12-04T09:19:48.010Z,98475.16
2022-12-04T09:22:14.478Z,98485.56
2022-12-04T09:24:41.058Z,98485.25
2022-12-04T09:27:12.913Z,98476.25
2022-12-04T09:29:43.403Z,98487.44
2022-12-04T09:32:10.541Z,98486.34
2022-12-04T09:34:37.062Z,98477.06
2022-12-04T09:37:03.516Z,98481.97
2022-12-04T09:39:30.314Z,98480.88
2022-12-04T09:42:33.677Z,98484.97
2022-12-04T09:45:14.548Z,98478.69
2022-12-04T09:47:45.474Z,98475.16
2022-12-04T09:50:18.929Z,98475.69
2022-12-04T09:52:57.528Z,98471.31
2022-12-04T09:55:27.874Z,98476.25
2022-12-04T09:58:02.099Z,98471.88
2022-12-04T10:00:29.597Z,98479.53
2022-12-04T10:02:59.523Z,98476.25
2022-12-04T10:05:32.028Z,98479.78
2022-12-04T10:08:23.050Z,98476.25
2022-12-04T10:11:08.790Z,98486.06
2022-12-04T10:13:42.533Z,98477.06
2022-12-04T10:16:15.048Z,98480.34
2022-12-04T10:19:02.285Z,98477.88
2022-12-04T10:21:51.260Z,98477.88
2022-12-04T10:24:55.706Z,98471.06
2022-12-04T10:27:58.664Z,98475.44
2022-12-04T10:30:35.300Z,98459.63
2022-12-04T10:33:15.936Z,98473.03
2022-12-04T10:35:43.867Z,98468.63
2022-12-04T10:38:15.501Z,98471.94
2022-12-04T10:40:51.786Z,98475.97
2022-12-04T10:43:39.732Z,98482.25
2022-12-04T10:46:06.307Z,98474.59
2022-12-04T10:48:35.100Z,98474.66
2022-12-04T10:51:01.678Z,98466.16
2022-12-04T10:53:32.751Z,98468.88
2022-12-04T10:56:18.124Z,98458.81
2022-12-04T10:58:55.877Z,98457.44
2022-12-04T11:01:22.535Z,98455.56
2022-12-04T11:04:06.286Z,98455.25
2022-12-04T11:06:32.877Z,98448.97
2022-12-04T11:09:02.581Z,98441.63
2022-12-04T11:11:35.917Z,98444.06
2022-12-04T11:14:20.139Z,98456.06
2022-12-04T11:16:49.645Z,98448.16
2022-12-04T11:19:28.476Z,98450.63
2022-12-04T11:21:59.824Z,98449.25
2022-12-04T11:25:01.541Z,98450.06
2022-12-04T11:27:34.232Z,98451.94
2022-12-04T11:30:03.717Z,98451.97
2022-12-04T11:32:32.282Z,98451.44
2022-12-04T11:35:01.003Z,98449.78
2022-12-04T11:37:34.176Z,98458.25
2022-12-04T11:40:02.197Z,98455.25
2022-12-04T11:42:34.870Z,98460.44
2022-12-04T11:45:22.193Z,98454.19
2022-12-04T11:48:00.978Z,98467.25
2022-12-04T11:50:53.597Z,98455.81
2022-12-04T11:53:38.081Z,98452.25
2022-12-04T11:56:14.334Z,98455.81
2022-12-04T11:58:59.500Z,98452.25
2022-12-04T12:01:58.222Z,98436.44
2022-12-04T12:05:03.263Z,98432.63
2022-12-04T12:08:03.271Z,98441.09
2022-12-04T12:10:42.985Z,98440.81
2022-12-04T12:13:27.947Z,98439.72
2022-12-04T12:16:20.085Z,98433.72
2022-12-04T12:18:59.642Z,98432.91
2022-12-04T12:21:33.068Z,98429.38
2022-12-04T12:24:11.770Z,98426.34
2022-12-04T12:27:12.861Z,98424.97
2022-12-04T12:29:46.050Z,98421.94
2022-12-04T12:32:43.745Z,98422.81
2022-12-04T12:35:21.378Z,98423.88
2022-12-04T12:37:51.076Z,98417.34
2022-12-04T12:40:32.222Z,98421.97
2022-12-04T12:43:30.253Z,98413.81
2022-12-04T12:46:01.931Z,98409.44
2022-12-04T12:48:42.091Z,98408.63
2022-12-04T12:54:19.640Z,98410.28
2022-12-04T12:56:49.905Z,98398.84
2022-12-04T12:59:21.856Z,98411.63
2022-12-04T13:01:59.922Z,98406.72
2022-12-04T13:04:50.971Z,98392.34
2022-12-04T13:07:17.236Z,98395.00
2022-12-04T13:10:22.382Z,98393.41
2022-12-04T13:12:54.849Z,98388.22
2022-12-04T13:15:24.580Z,98375.38
2022-12-04T13:17:51.703Z,98365.31
2022-12-04T13:20:22.352Z,98369.38
2022-12-04T13:22:59.324Z,98363.44
2022-12-04T13:25:58.762Z,98371.63
2022-12-04T13:28:49.962Z,98370.53
2022-12-04T13:31:28.239Z,98365.63
2022-12-04T13:33:59.672Z,98362.34
2022-12-04T13:36:30.386Z,98364.25
2022-12-04T13:39:23.093Z,98356.63
2022-12-04T13:41:57.058Z,98351.47
2022-12-04T13:44:24.013Z,98356.91
2022-12-04T13:47:03.823Z,98360.13
2022-12-04T13:49:32.268Z,98359.56
2022-12-04T13:52:00.013Z,98351.97
2022-12-04T13:54:29.402Z,98353.84
2022-12-04T13:56:58.118Z,98345.09
2022-12-04T13:59:27.947Z,98348.91
2022-12-04T14:02:02.254Z,98347.03
2022-12-04T14:04:45.533Z,98349.75
2022-12-04T14:07:32.661Z,98349.81
2022-12-04T14:10:04.073Z,98346.53
2022-12-04T14:12:38.804Z,98339.72
2022-12-04T14:15:22.486Z,98339.47
2022-12-04T14:18:04.898Z,98345.44
2022-12-04T14:20:32.388Z,98348.44
2022-12-04T14:23:08.865Z,98354.16
2022-12-04T14:25:38.201Z,98356.63
2022-12-04T14:28:41.685Z,98349.25
2022-12-04T14:31:08.724Z,98352.53
2022-12-04T14:33:39.670Z,98358.53
2022-12-04T14:36:08.659Z,98353.03
2022-12-04T14:38:35.374Z,98347.03
2022-12-04T14:41:01.940Z,98350.03
2022-12-04T14:43:32.517Z,98351.91
2022-12-04T14:46:09.544Z,98349.72
2022-12-04T14:48:41.873Z,98359.03
2022-12-04T14:51:18.295Z,98349.47
2022-12-04T14:53:46.276Z,98354.94
2022-12-04T14:56:49.218Z,98359.28
2022-12-04T14:59:19.849Z,98365.53
2022-12-04T15:01:47.527Z,98373.13
2022-12-04T15:04:21.435Z,98372.06
2022-12-04T15:06:48.980Z,98367.16
2022-12-04T15:09:38.641Z,98370.94
2022-12-04T15:12:36.957Z,98382.19
2022-12-04T15:15:12.899Z,98386.81
2022-12-04T15:17:39.782Z,98387.34
2022-12-04T15:20:17.468Z,98389.81
2022-12-04T15:22:43.936Z,98380.28
2022-12-04T15:25:19.278Z,98385.97
2022-12-04T15:27:46.719Z,98386.53
2022-12-04T15:30:17.691Z,98376.72
2022-12-04T15:32:44.232Z,98378.63
2022-12-04T15:35:14.000Z,98374.28
2022-12-04T15:37:40.497Z,98382.44
2022-12-04T15:40:07.929Z,98378.66
2022-12-04T15:42:34.400Z,98373.19
2022-12-04T15:45:02.519Z,98377.00
2022-12-04T15:47:29.852Z,98382.19
2022-12-04T15:50:15.482Z,98387.09
2022-12-04T15:53:15.445Z,98395.00
2022-12-04T15:55:52.674Z,98402.91
2022-12-04T15:58:27.768Z,98405.91
2022-12-04T16:00:56.238Z,98406.47
2022-12-04T16:03:47.785Z,98415.72
2022-12-04T16:06:30.736Z,98412.72
2022-12-04T16:09:21.939Z,98418.44
2022-12-04T16:12:00.660Z,98414.63
2022-12-04T16:14:27.232Z,98417.38
2022-12-04T16:16:54.938Z,98413.53
2022-12-04T16:19:28.722Z,98425.81
2022-12-04T16:21:55.223Z,98432.63
2022-12-04T16:24:21.754Z,98426.34
2022-12-04T16:26:52.326Z,98425.25
2022-12-04T16:29:19.119Z,98419.81
2022-12-04T16:31:45.670Z,98417.34
2022-12-04T16:34:12.692Z,98417.63
2022-12-04T16:36:39.333Z,98417.09
2022-12-04T16:39:05.862Z,98417.63
2022-12-04T16:41:32.325Z,98416.00
2022-12-04T16:43:59.359Z,98416.53
2022-12-04T16:46:26.945Z,98413.25
2022-12-04T16:48:53.523Z,98409.19
2022-12-04T16:51:22.881Z,98415.16
2022-12-04T16:53:50.238Z,98415.44
2022-12-04T16:56:16.770Z,98402.63
2022-12-04T16:58:43.760Z,98425.25
2022-12-04T17:01:23.183Z,98429.88
2022-12-04T17:03:50.097Z,98417.84
2022-12-04T17:06:16.756Z,98418.97
2022-12-04T17:08:43.234Z,98420.06
2022-12-04T17:11:12.509Z,98429.88
2022-12-04T17:13:38.961Z,98421.16
2022-12-04T17:16:05.540Z,98428.47
2022-12-04T17:18:32.106Z,98433.09
2022-12-04T17:20:58.839Z,98439.09
2022-12-04T17:23:25.385Z,98436.63
2022-12-04T17:25:51.859Z,98432.56
2022-12-04T17:28:18.344Z,98447.03
2022-12-04T17:30:46.147Z,98441.56
2022-12-04T17:33:12.708Z,98446.47
2022-12-04T17:35:43.508Z,98445.09
2022-12-04T17:38:10.065Z,98447.00
2022-12-04T17:40:36.559Z,98435.81
2022-12-04T17:43:09.246Z,98434.47
2022-12-04T17:45:35.757Z,98427.66
2022-12-04T17:48:02.261Z,98433.91
2022-12-04T17:50:28.896Z,98432.00
2022-12-04T17:53:04.485Z,98434.19
2022-12-04T17:55:31.018Z,98434.19
2022-12-04T17:58:00.546Z,98426.00
2022-12-04T18:00:38.565Z,98414.81
2022-12-04T18:03:05.565Z,98418.09
2022-12-04T18:05:35.929Z,98423.53
2022-12-04T18:08:05.399Z,98415.09
2022-12-04T18:10:32.090Z,98411.00
2022-12-04T18:12:58.561Z,98424.03
2022-12-04T18:15:25.042Z,98418.84
2022-12-04T18:17:51.535Z,98417.50
2022-12-04T18:20:18.472Z,98424.84
2022-12-04T18:22:44.991Z,98415.06
2022-12-04T18:25:11.810Z,98417.78
2022-12-04T18:27:41.823Z,98422.66
2022-12-04T18:30:09.159Z,98417.72
2022-12-04T18:32:39.714Z,98413.13
2022-12-04T18:35:09.532Z,98410.13
2022-12-04T18:37:36.163Z,98419.38
2022-12-04T18:40:06.643Z,98412.81
2022-12-04T18:42:33.824Z,98407.09
2022-12-04T18:45:00.600Z,98406.31
2022-12-04T18:47:27.113Z,98410.91
2022-12-04T18:50:01.097Z,98403.84
2022-12-04T18:52:27.689Z,98398.13
2022-12-04T18:54:54.206Z,98402.44
2022-12-04T18:57:28.586Z,98400.53
2022-12-04T18:59:55.478Z,98399.44
2022-12-04T19:02:22.467Z,98410.09
2022-12-04T19:04:48.974Z,98417.47
2022-12-04T19:07:15.456Z,98411.69
2022-12-04T19:10:09.991Z,98410.63
2022-12-04T19:12:28.470Z,98411.72
2022-12-04T19:14:54.949Z,98420.16
2022-12-04T19:17:22.421Z,98415.00
2022-12-04T19:19:48.926Z,98422.63
2022-12-04T19:22:15.436Z,98419.06
2022-12-04T19:24:42.413Z,98425.56
2022-12-04T19:27:12.013Z,98424.53
2022-12-04T19:29:42.479Z,98421.50
2022-12-04T19:32:09.543Z,98427.25
2022-12-04T19:34:36.220Z,98427.00
2022-12-04T19:37:02.641Z,98426.44
2022-12-04T19:39:29.070Z,98426.38
2022-12-04T19:41:55.520Z,98432.94
2022-12-04T19:47:08.919Z,98426.38
2022-12-04T19:49:35.338Z,98437.06
2022-12-04T19:52:01.829Z,98427.25
2022-12-04T19:54:29.865Z,98436.25
2022-12-04T19:56:56.283Z,98435.13
2022-12-04T19:59:22.708Z,98431.84
2022-12-04T20:01:49.187Z,98437.59
2022-12-04T20:04:15.725Z,98433.22
2022-12-04T20:06:43.800Z,98432.13
2022-12-04T20:09:12.548Z,98427.47
2022-12-04T20:11:39.018Z,98428.06
2022-12-04T20:14:05.560Z,98428.63
2022-12-04T20:16:32.567Z,98418.25
2022-12-04T20:18:59.178Z,98428.88
2022-12-04T20:21:30.125Z,98423.16
2022-12-04T20:23:57.304Z,98418.75
2022-12-04T20:26:26.266Z,98424.75
2022-12-04T20:28:53.041Z,98414.66
2022-12-04T20:31:22.149Z,98410.06
2022-12-04T20:33:49.684Z,98408.44
2022-12-04T20:36:18.578Z,98405.66
2022-12-04T20:38:45.128Z,98414.09
2022-12-04T20:41:16.078Z,98409.19
2022-12-04T20:43:43.204Z,98407.25
2022-12-04T20:46:20.343Z,98404.00
2022-12-04T20:48:49.808Z,98411.66
2022-12-04T20:51:22.861Z,98415.47
2022-12-04T20:53:52.595Z,98411.66
2022-12-04T20:56:19.412Z,98403.19
2022-12-04T20:58:45.889Z,98406.16
2022-12-04T21:01:14.443Z,98410.00
2022-12-04T21:03:41.124Z,98401.81
2022-12-04T21:06:20.002Z,98397.72
2022-12-04T21:08:53.055Z,98399.63
2022-12-04T21:11:27.659Z,98395.50
2022-12-04T21:14:13.418Z,98391.44
2022-12-04T21:16:40.276Z,98397.72
2022-12-04T21:19:09.015Z,98396.06
2022-12-04T21:21:36.164Z,98394.13
2022-12-04T21:24:03.734Z,98398.22
2022-12-04T21:26:31.302Z,98386.75
2022-12-04T21:28:58.129Z,98387.59
2022-12-04T21:31:27.036Z,98387.84
2022-12-04T21:33:53.526Z,98382.06
2022-12-04T21:36:20.038Z,98385.31
2022-12-04T21:38:46.501Z,98385.06
2022-12-04T21:41:45.415Z,98376.00
2022-12-04T21:44:14.333Z,98373.03
2022-12-04T21:46:40.890Z,98373.00
2022-12-04T21:49:07.999Z,98377.66
2022-12-04T21:54:21.269Z,98365.38
2022-12-04T21:56:47.749Z,98367.53
2022-12-04T21:59:14.200Z,98360.44
2022-12-04T22:01:40.828Z,98358.56
2022-12-04T22:04:07.322Z,98353.09
2022-12-04T22:06:36.161Z,98349.00
2022-12-04T22:09:03.825Z,98353.63
2022-12-04T22:11:30.346Z,98355.00
2022-12-04T22:13:57.212Z,98360.44
2022-12-04T22:16:30.356Z,98362.63
2022-12-04T22:18:57.804Z,98366.75
2022-12-04T22:21:24.302Z,98360.91
2022-12-04T22:23:55.595Z,98374.66
2022-12-04T22:26:22.107Z,98373.03
2022-12-04T22:28:49.523Z,98378.75
2022-12-04T22:31:17.888Z,98377.13
2022-12-04T22:33:52.027Z,98365.91
2022-12-04T22:36:20.066Z,98362.34
2022-12-04T22:39:08.064Z,98371.09
2022-12-04T22:41:33.331Z,98381.72
2022-12-04T22:43:59.778Z,98370.00
2022-12-04T22:46:26.364Z,98375.44
2022-12-04T22:48:52.886Z,98373.78
2022-12-04T22:51:20.403Z,98368.00
2022-12-04T22:53:51.951Z,98365.78
2022-12-04T22:56:25.403Z,98369.09
2022-12-04T22:58:52.163Z,98369.44
2022-12-04T23:01:26.261Z,98370.72
2022-12-04T23:03:52.973Z,98372.72
2022-12-04T23:06:20.160Z,98369.38
2022-12-04T23:08:46.728Z,98361.28
2022-12-04T23:11:15.055Z,98372.19
2022-12-04T23:13:41.648Z,98360.16
2022-12-04T23:16:09.836Z,98353.06
2022-12-04T23:18:37.514Z,98366.16
2022-12-04T23:21:11.363Z,98366.88
2022-12-04T23:23:39.026Z,98360.63
2022-12-04T23:26:06.818Z,98359.81
2022-12-04T23:28:33.370Z,98362.34
2022-12-04T23:31:00.972Z,98362.34
2022-12-04T23:33:27.464Z,98371.38
2022-12-04T23:35:57.658Z,98363.44
2022-12-04T23:38:24.170Z,98367.97
2022-12-04T23:40:50.707Z,98376.22
2022-12-04T23:43:17.239Z,98371.81
2022-12-04T23:45:43.924Z,98372.38
2022-12-04T23:48:10.582Z,98376.47
2022-12-04T23:50:37.046Z,98377.03
2022-12-04T23:53:03.546Z,98386.56
2022-12-04T23:55:34.298Z,98386.63
2022-12-04T23:58:01.858Z,98379.19
